createdAt,value
2019-04-14T00:00:56.067Z,3.20
2019-04-14T00:03:28.240Z,3.30
2019-04-14T00:06:00.503Z,3.40
2019-04-14T00:08:32.604Z,3.30
2019-04-14T00:11:04.030Z,3.40
2019-04-14T00:13:34.957Z,3.50
2019-04-14T00:16:05.401Z,3.50
2019-04-14T00:18:35.935Z,3.50
2019-04-14T00:21:06.563Z,3.50
2019-04-14T00:23:37.015Z,3.50
2019-04-14T00:26:31.639Z,3.50
2019-04-14T00:29:03.146Z,3.60
2019-04-14T00:31:34.999Z,3.60
2019-04-14T00:34:07.377Z,3.60
2019-04-14T00:36:48.184Z,3.70
2019-04-14T00:39:20.487Z,3.60
2019-04-14T00:42:08.656Z,3.60
2019-04-14T00:44:40.999Z,3.60
2019-04-14T00:47:13.549Z,3.50
2019-04-14T00:49:44.087Z,3.50
2019-04-14T00:52:14.593Z,3.50
2019-04-14T00:54:45.648Z,3.40
2019-04-14T00:57:16.058Z,3.30
2019-04-14T00:59:46.449Z,3.20
2019-04-14T01:02:16.743Z,3.10
2019-04-14T01:04:47.241Z,3.20
2019-04-14T01:07:17.523Z,3.20
2019-04-14T01:09:48.843Z,3.10
2019-04-14T01:12:19.243Z,3.10
2019-04-14T01:14:49.782Z,3.10
2019-04-14T01:17:20.052Z,3.10
2019-04-14T01:19:50.821Z,3.10
2019-04-14T01:22:23.184Z,3.10
2019-04-14T01:24:53.344Z,3.10
2019-04-14T01:27:23.953Z,3.00
2019-04-14T01:29:54.500Z,2.90
2019-04-14T01:32:24.751Z,2.90
2019-04-14T01:34:55.863Z,3.00
2019-04-14T01:37:27.173Z,2.90
2019-04-14T01:39:58.594Z,2.90
2019-04-14T01:42:29.096Z,3.00
2019-04-14T01:44:59.464Z,2.90
2019-04-14T01:47:31.337Z,2.90
2019-04-14T01:50:01.886Z,2.90
2019-04-14T01:52:34.117Z,2.90
2019-04-14T01:55:13.894Z,2.90
2019-04-14T01:57:48.558Z,2.90
2019-04-14T02:00:20.867Z,2.90
2019-04-14T02:02:51.537Z,3.00
2019-04-14T02:05:21.809Z,3.10
2019-04-14T02:07:52.105Z,3.10
2019-04-14T02:10:23.751Z,3.10
2019-04-14T02:12:54.336Z,3.10
2019-04-14T02:15:25.002Z,3.20
2019-04-14T02:17:56.742Z,3.20
2019-04-14T02:20:28.183Z,3.10
2019-04-14T02:22:59.544Z,3.10
2019-04-14T02:25:31.667Z,3.10
2019-04-14T02:28:02.322Z,3.10
2019-04-14T02:30:39.224Z,3.20
2019-04-14T02:33:39.040Z,3.10
2019-04-14T02:36:14.538Z,3.20
2019-04-14T02:38:40.903Z,3.20
2019-04-14T02:41:14.133Z,3.20
2019-04-14T02:44:00.152Z,3.20
2019-04-14T02:46:13.860Z,3.20
2019-04-14T02:53:51.723Z,3.20
2019-04-14T02:56:21.760Z,3.30
2019-04-14T02:58:52.389Z,3.30
2019-04-14T03:01:48.341Z,3.20
2019-04-14T03:03:49.062Z,3.20
2019-04-14T03:06:25.375Z,3.20
2019-04-14T03:09:08.001Z,3.30
2019-04-14T03:11:38.001Z,3.30
2019-04-14T03:17:05.758Z,3.30
2019-04-14T03:19:37.734Z,3.30
2019-04-14T03:22:18.298Z,3.30
2019-04-14T03:24:34.203Z,3.30
2019-04-14T03:27:15.280Z,3.30
2019-04-14T03:29:52.064Z,3.30
2019-04-14T03:32:42.580Z,3.30
2019-04-14T03:40:01.749Z,3.30
2019-04-14T03:42:37.848Z,3.30
2019-04-14T03:45:11.134Z,3.30
2019-04-14T03:52:53.298Z,3.40
2019-04-14T03:55:03.884Z,3.40
2019-04-14T03:57:15.583Z,3.40
2019-04-14T03:59:45.858Z,3.40
2019-04-14T04:02:16.234Z,3.40
2019-04-14T04:04:46.835Z,3.40
2019-04-14T04:07:17.155Z,3.50
2019-04-14T04:09:51.837Z,3.50
2019-04-14T04:12:22.613Z,3.50
2019-04-14T04:14:53.179Z,3.50
2019-04-14T04:17:40.887Z,3.50
2019-04-14T04:20:28.995Z,3.50
2019-04-14T04:23:20.495Z,3.50
2019-04-14T04:25:59.482Z,3.50
2019-04-14T04:28:47.179Z,3.40
2019-04-14T04:31:28.668Z,3.40
2019-04-14T04:34:07.529Z,3.50
2019-04-14T04:36:39.887Z,3.50
2019-04-14T04:39:14.944Z,3.50
2019-04-14T04:41:45.343Z,3.50
2019-04-14T04:44:15.921Z,3.50
2019-04-14T04:46:46.574Z,3.50
2019-04-14T04:49:21.755Z,3.50
2019-04-14T04:51:48.991Z,3.50
2019-04-14T04:54:19.334Z,3.40
2019-04-14T04:56:49.989Z,3.50
2019-04-14T04:59:21.250Z,3.50
2019-04-14T05:01:51.623Z,3.50
2019-04-14T05:04:22.089Z,3.40
2019-04-14T05:07:01.704Z,3.40
2019-04-14T05:09:36.840Z,3.40
2019-04-14T05:12:28.357Z,3.50
2019-04-14T05:15:00.965Z,3.50
2019-04-14T05:17:49.491Z,3.60
2019-04-14T05:20:20.316Z,3.50
2019-04-14T05:22:51.045Z,3.60
2019-04-14T05:25:21.671Z,3.60
2019-04-14T05:27:51.985Z,3.60
2019-04-14T05:30:22.266Z,3.60
2019-04-14T05:32:52.553Z,3.60
2019-04-14T05:35:22.832Z,3.60
2019-04-14T05:37:53.143Z,3.60
2019-04-14T05:40:23.526Z,3.70
2019-04-14T05:42:55.889Z,3.70
2019-04-14T05:45:26.841Z,3.80
2019-04-14T05:47:57.334Z,3.80
2019-04-14T05:50:27.691Z,3.80
2019-04-14T05:52:58.000Z,3.90
2019-04-14T05:55:28.483Z,3.90
2019-04-14T05:57:59.219Z,3.90
2019-04-14T06:00:30.002Z,3.90
2019-04-14T06:03:01.698Z,3.90
2019-04-14T06:05:32.357Z,3.90
2019-04-14T06:08:02.887Z,3.90
2019-04-14T06:10:34.087Z,3.90
2019-04-14T06:13:04.570Z,4.00
2019-04-14T06:15:35.984Z,4.10
2019-04-14T06:18:06.691Z,4.20
2019-04-14T06:20:36.982Z,4.20
2019-04-14T06:23:07.345Z,4.20
2019-04-14T06:25:37.712Z,4.30
2019-04-14T06:28:07.929Z,4.40
2019-04-14T06:30:42.498Z,4.50
2019-04-14T06:33:17.889Z,4.50
2019-04-14T06:36:04.811Z,4.60
2019-04-14T06:38:36.736Z,4.70
2019-04-14T06:41:08.646Z,4.70
2019-04-14T06:43:48.316Z,4.70
2019-04-14T06:46:10.909Z,4.70
2019-04-14T06:48:41.186Z,4.80
2019-04-14T06:51:11.567Z,4.80
2019-04-14T06:53:41.842Z,4.90
2019-04-14T06:56:12.124Z,5.00
2019-04-14T06:58:42.465Z,5.00
2019-04-14T07:01:12.743Z,5.10
2019-04-14T07:03:43.037Z,5.10
2019-04-14T07:06:13.316Z,5.10
2019-04-14T07:08:43.604Z,5.10
2019-04-14T07:11:14.749Z,5.20
2019-04-14T07:13:47.861Z,5.30
2019-04-14T07:16:17.040Z,5.30
2019-04-14T07:18:47.837Z,5.30
2019-04-14T07:21:18.192Z,5.40
2019-04-14T07:23:48.476Z,5.60
2019-04-14T07:26:18.797Z,5.70
2019-04-14T07:28:56.719Z,5.90
2019-04-14T07:31:39.154Z,6.00
2019-04-14T07:34:13.816Z,6.10
2019-04-14T07:37:02.091Z,6.30
2019-04-14T07:39:34.097Z,6.50
2019-04-14T07:42:06.076Z,6.50
2019-04-14T07:44:37.996Z,6.50
2019-04-14T07:47:09.943Z,6.40
2019-04-14T07:49:44.668Z,6.40
2019-04-14T07:52:16.858Z,6.30
2019-04-14T07:54:54.298Z,6.30
2019-04-14T07:57:44.190Z,6.40
2019-04-14T08:00:19.766Z,6.50
2019-04-14T08:02:51.691Z,6.60
2019-04-14T08:05:24.016Z,6.80
2019-04-14T08:07:54.545Z,6.80
2019-04-14T08:10:24.884Z,6.80
2019-04-14T08:12:55.174Z,6.70
2019-04-14T08:15:25.925Z,6.80
2019-04-14T08:17:56.209Z,6.90
2019-04-14T08:20:27.875Z,7.00
2019-04-14T08:22:58.258Z,6.90
2019-04-14T08:25:28.606Z,6.90
2019-04-14T08:27:58.883Z,7.00
2019-04-14T08:30:29.230Z,7.20
2019-04-14T08:32:59.550Z,7.30
2019-04-14T08:35:29.824Z,7.40
2019-04-14T08:38:00.157Z,7.60
2019-04-14T08:40:30.382Z,7.70
2019-04-14T08:43:05.427Z,7.70
2019-04-14T08:45:37.704Z,7.80
2019-04-14T08:48:25.571Z,7.90
2019-04-14T08:51:06.827Z,7.90
2019-04-14T08:53:57.159Z,7.90
2019-04-14T08:56:34.823Z,7.80
2019-04-14T08:59:15.812Z,7.80
2019-04-14T09:01:53.287Z,7.80
2019-04-14T09:04:40.329Z,7.90
2019-04-14T09:07:15.068Z,8.20
2019-04-14T09:09:49.616Z,8.30
2019-04-14T09:12:24.489Z,8.40
2019-04-14T09:14:57.332Z,8.50
2019-04-14T09:17:28.514Z,8.60
2019-04-14T09:19:58.786Z,8.80
2019-04-14T09:22:29.065Z,8.90
2019-04-14T09:24:59.634Z,9.10
2019-04-14T09:27:29.934Z,9.30
2019-04-14T09:30:00.194Z,9.30
2019-04-14T09:32:31.249Z,9.40
2019-04-14T09:35:02.051Z,9.50
2019-04-14T09:37:32.325Z,9.60
2019-04-14T09:40:02.848Z,9.70
2019-04-14T09:42:33.184Z,9.90
2019-04-14T09:45:03.936Z,10.00
2019-04-14T09:47:34.229Z,10.20
2019-04-14T09:50:06.428Z,10.30
2019-04-14T09:52:36.735Z,10.40
2019-04-14T09:55:07.732Z,10.30
2019-04-14T09:57:38.259Z,10.00
2019-04-14T10:00:10.730Z,10.10
2019-04-14T10:02:41.009Z,10.40
2019-04-14T10:05:11.439Z,10.80
2019-04-14T10:07:41.719Z,10.90
2019-04-14T10:10:12.343Z,10.90
2019-04-14T10:12:42.630Z,10.90
2019-04-14T10:15:12.915Z,10.90
2019-04-14T10:17:43.202Z,11.00
2019-04-14T10:20:13.499Z,11.10
2019-04-14T10:22:43.799Z,11.30
2019-04-14T10:25:14.069Z,11.50
2019-04-14T10:27:44.391Z,11.50
2019-04-14T10:30:14.745Z,11.60
2019-04-14T10:32:45.039Z,11.50
2019-04-14T10:35:15.392Z,11.50
2019-04-14T10:37:45.675Z,11.70
2019-04-14T10:40:15.964Z,11.80
2019-04-14T10:42:46.316Z,12.00
2019-04-14T10:45:18.464Z,12.10
2019-04-14T10:47:49.775Z,12.00
2019-04-14T10:50:30.249Z,12.30
2019-04-14T10:52:52.060Z,12.40
2019-04-14T10:55:22.421Z,12.40
2019-04-14T10:57:52.781Z,12.40
2019-04-14T11:00:23.251Z,12.50
2019-04-14T11:02:53.531Z,12.50
2019-04-14T11:05:31.378Z,12.50
2019-04-14T11:08:05.005Z,12.60
2019-04-14T11:10:37.327Z,12.70
2019-04-14T11:13:10.759Z,13.10
2019-04-14T11:15:43.015Z,13.30
2019-04-14T11:18:18.974Z,13.70
2019-04-14T11:20:53.007Z,13.70
2019-04-14T11:23:23.978Z,13.70
2019-04-14T11:25:56.769Z,13.40
2019-04-14T11:28:37.493Z,13.50
2019-04-14T11:31:09.409Z,13.60
2019-04-14T11:33:59.835Z,13.70
2019-04-14T11:36:47.869Z,13.60
2019-04-14T11:39:19.808Z,13.70
2019-04-14T11:41:50.088Z,13.90
2019-04-14T11:44:20.402Z,14.10
2019-04-14T11:46:50.675Z,14.20
2019-04-14T11:49:21.035Z,14.10
2019-04-14T11:51:55.502Z,13.90
2019-04-14T11:54:23.375Z,13.70
2019-04-14T11:56:54.019Z,13.90
2019-04-14T11:59:26.229Z,14.20
2019-04-14T12:02:06.989Z,14.30
2019-04-14T12:04:38.919Z,14.30
2019-04-14T12:07:26.006Z,14.60
2019-04-14T12:09:58.227Z,14.60
2019-04-14T12:12:28.861Z,14.50
2019-04-14T12:14:59.140Z,14.50
2019-04-14T12:17:29.445Z,14.90
2019-04-14T12:19:59.722Z,14.70
2019-04-14T12:22:30.023Z,15.00
2019-04-14T12:25:00.294Z,14.60
2019-04-14T12:27:30.594Z,14.10
2019-04-14T12:30:01.086Z,14.20
2019-04-14T12:32:31.444Z,14.50
2019-04-14T12:35:01.736Z,13.90
2019-04-14T12:37:32.029Z,13.80
2019-04-14T12:40:02.751Z,14.10
2019-04-14T12:42:37.578Z,14.10
2019-04-14T12:45:27.433Z,14.30
2019-04-14T12:47:59.357Z,14.60
2019-04-14T12:50:37.177Z,14.70
2019-04-14T12:53:07.527Z,14.10
2019-04-14T12:55:37.819Z,13.60
2019-04-14T12:58:11.205Z,13.60
2019-04-14T13:00:43.493Z,13.80
2019-04-14T13:03:13.790Z,13.90
2019-04-14T13:05:44.075Z,13.80
2019-04-14T13:08:14.355Z,13.60
2019-04-14T13:10:44.672Z,13.70
2019-04-14T13:13:14.975Z,14.00
2019-04-14T13:15:45.262Z,14.10
2019-04-14T13:18:15.800Z,14.10
2019-04-14T13:20:46.087Z,14.20
2019-04-14T13:23:16.377Z,14.20
2019-04-14T13:25:46.671Z,14.30
2019-04-14T13:28:16.959Z,14.50
2019-04-14T13:30:48.729Z,14.60
2019-04-14T13:33:19.286Z,14.40
2019-04-14T13:35:49.578Z,14.40
2019-04-14T13:38:19.857Z,14.60
2019-04-14T13:40:50.384Z,14.60
2019-04-14T13:43:20.895Z,14.30
2019-04-14T13:45:51.201Z,13.80
2019-04-14T13:48:21.483Z,13.70
2019-04-14T13:50:51.789Z,13.70
2019-04-14T13:53:22.075Z,13.90
2019-04-14T13:55:52.385Z,13.50
2019-04-14T13:58:22.847Z,13.30
2019-04-14T14:00:53.395Z,13.60
2019-04-14T14:03:23.712Z,13.90
2019-04-14T14:05:54.029Z,13.90
2019-04-14T14:08:24.369Z,13.70
2019-04-14T14:10:57.248Z,13.70
2019-04-14T14:13:41.337Z,13.70
2019-04-14T14:16:29.230Z,13.50
2019-04-14T14:19:17.406Z,13.20
2019-04-14T14:21:52.263Z,12.90
2019-04-14T14:24:33.194Z,12.70
2019-04-14T14:27:04.749Z,12.50
2019-04-14T14:29:35.064Z,12.60
2019-04-14T14:32:07.378Z,12.60
2019-04-14T14:34:38.399Z,12.30
2019-04-14T14:37:08.683Z,11.90
2019-04-14T14:39:38.975Z,11.70
2019-04-14T14:42:09.268Z,11.60
2019-04-14T14:44:41.277Z,11.60
2019-04-14T14:47:25.198Z,11.60
2019-04-14T14:50:03.231Z,11.60
2019-04-14T14:52:34.890Z,11.60
2019-04-14T14:55:06.788Z,11.50
2019-04-14T14:57:37.098Z,11.50
2019-04-14T15:00:11.034Z,11.40
2019-04-14T15:02:40.616Z,11.20
2019-04-14T15:05:11.216Z,11.10
2019-04-14T15:07:41.969Z,11.10
2019-04-14T15:10:12.260Z,11.00
2019-04-14T15:12:42.814Z,10.90
2019-04-14T15:15:13.947Z,10.80
2019-04-14T15:17:45.405Z,10.90
2019-04-14T15:20:15.692Z,11.10
2019-04-14T15:22:46.253Z,11.20
2019-04-14T15:25:16.648Z,11.40
2019-04-14T15:27:47.349Z,11.40
2019-04-14T15:30:19.471Z,11.30
2019-04-14T15:32:50.216Z,11.10
2019-04-14T15:35:20.507Z,10.60
2019-04-14T15:37:50.788Z,10.60
2019-04-14T15:40:21.500Z,10.60
2019-04-14T15:42:51.827Z,10.70
2019-04-14T15:45:22.155Z,10.80
2019-04-14T15:47:52.481Z,10.80
2019-04-14T15:50:22.772Z,10.60
2019-04-14T15:52:53.070Z,10.70
2019-04-14T15:55:23.355Z,10.60
2019-04-14T15:58:01.257Z,10.60
2019-04-14T16:00:48.187Z,10.60
2019-04-14T16:03:20.560Z,10.60
2019-04-14T16:05:52.563Z,10.70
2019-04-14T16:08:27.362Z,10.70
2019-04-14T16:11:15.612Z,10.60
2019-04-14T16:14:03.611Z,10.50
2019-04-14T16:16:38.111Z,10.40
2019-04-14T16:19:19.747Z,10.00
2019-04-14T16:21:50.361Z,9.80
2019-04-14T16:24:20.663Z,9.70
2019-04-14T16:26:52.952Z,9.60
2019-04-14T16:29:27.695Z,9.60
2019-04-14T16:32:14.366Z,9.40
2019-04-14T16:34:46.294Z,9.30
2019-04-14T16:37:16.599Z,9.20
2019-04-14T16:39:46.924Z,9.10
2019-04-14T16:42:17.199Z,9.00
2019-04-14T16:44:47.511Z,8.90
2019-04-14T16:47:17.793Z,8.80
2019-04-14T16:49:48.096Z,8.70
2019-04-14T16:52:20.023Z,8.80
2019-04-14T16:54:51.969Z,8.70
2019-04-14T16:57:24.374Z,8.70
2019-04-14T16:59:54.655Z,8.70
2019-04-14T17:02:24.951Z,8.70
2019-04-14T17:04:55.269Z,8.50
2019-04-14T17:07:25.563Z,8.40
2019-04-14T17:09:55.845Z,8.40
2019-04-14T17:12:26.134Z,8.40
2019-04-14T17:15:08.341Z,8.30
2019-04-14T17:17:46.435Z,8.30
2019-04-14T17:20:36.900Z,8.30
2019-04-14T17:23:25.264Z,8.20
2019-04-14T17:25:57.190Z,8.20
2019-04-14T17:28:31.698Z,8.20
2019-04-14T17:31:02.879Z,8.20
2019-04-14T17:33:34.671Z,8.10
2019-04-14T17:36:06.678Z,8.10
2019-04-14T17:38:38.862Z,8.20
2019-04-14T17:41:13.686Z,8.10
2019-04-14T17:43:57.433Z,8.10
2019-04-14T17:46:29.372Z,8.10
2019-04-14T17:49:17.525Z,8.10
2019-04-14T17:51:49.449Z,8.10
2019-04-14T17:54:29.625Z,8.00
2019-04-14T17:57:03.579Z,8.00
2019-04-14T17:59:38.319Z,7.90
2019-04-14T18:02:10.256Z,8.00
2019-04-14T18:04:54.369Z,8.00
2019-04-14T18:07:26.282Z,7.90
2019-04-14T18:10:01.170Z,8.10
2019-04-14T18:12:33.134Z,8.00
2019-04-14T18:15:11.554Z,8.00
2019-04-14T18:17:48.255Z,7.90
2019-04-14T18:20:20.189Z,7.90
2019-04-14T18:22:50.487Z,7.90
2019-04-14T18:25:20.768Z,7.80
2019-04-14T18:28:04.460Z,7.90
2019-04-14T18:30:36.379Z,7.70
2019-04-14T18:33:08.592Z,7.70
2019-04-14T18:35:43.703Z,7.70
2019-04-14T18:38:27.873Z,7.70
2019-04-14T18:40:59.814Z,7.70
2019-04-14T18:43:43.838Z,7.60
2019-04-14T18:46:32.219Z,7.70
2019-04-14T18:49:04.139Z,7.60
2019-04-14T18:51:51.326Z,7.60
2019-04-14T18:54:25.812Z,7.60
2019-04-14T18:57:00.482Z,7.60
2019-04-14T18:59:32.407Z,7.60
2019-04-14T19:02:02.782Z,7.60
2019-04-14T19:04:33.359Z,7.50
2019-04-14T19:07:04.778Z,7.60
2019-04-14T19:09:35.059Z,7.50
2019-04-14T19:12:19.183Z,7.40
2019-04-14T19:15:02.806Z,7.40
2019-04-14T19:17:34.726Z,7.40
2019-04-14T19:20:07.318Z,7.40
2019-04-14T19:22:37.599Z,7.40
2019-04-14T19:25:08.824Z,7.40
2019-04-14T19:27:39.253Z,7.30
2019-04-14T19:30:09.936Z,7.30
2019-04-14T19:32:40.233Z,7.30
2019-04-14T19:35:10.651Z,7.30
2019-04-14T19:37:40.936Z,7.20
2019-04-14T19:40:12.355Z,7.20
2019-04-14T19:42:42.629Z,7.10
2019-04-14T19:45:13.047Z,7.10
2019-04-14T19:47:43.588Z,7.10
2019-04-14T19:50:14.098Z,7.10
2019-04-14T19:52:44.569Z,7.00
2019-04-14T19:55:20.682Z,7.00
2019-04-14T19:57:49.007Z,6.90
2019-04-14T20:00:19.603Z,7.00
2019-04-14T20:02:49.864Z,6.90
2019-04-14T20:05:20.135Z,6.90
2019-04-14T20:07:50.400Z,6.80
2019-04-14T20:10:20.683Z,6.70
2019-04-14T20:12:51.127Z,6.70
2019-04-14T20:15:25.756Z,6.70
2019-04-14T20:17:57.675Z,6.70
2019-04-14T20:20:29.582Z,6.70
2019-04-14T20:23:07.349Z,6.60
2019-04-14T20:25:55.507Z,6.60
2019-04-14T20:28:29.858Z,6.70
2019-04-14T20:31:01.832Z,6.70
2019-04-14T20:33:32.107Z,6.70
2019-04-14T20:36:05.222Z,6.70
2019-04-14T20:38:34.354Z,6.70
2019-04-14T20:41:04.648Z,6.60
2019-04-14T20:43:34.993Z,6.60
2019-04-14T20:46:05.604Z,6.60
2019-04-14T20:48:35.875Z,6.60
2019-04-14T20:51:06.148Z,6.60
2019-04-14T20:53:37.906Z,6.60
2019-04-14T20:56:08.196Z,6.50
2019-04-14T20:58:38.476Z,6.50
2019-04-14T21:01:10.911Z,6.50
2019-04-14T21:03:54.764Z,6.50
2019-04-14T21:06:38.849Z,6.40
2019-04-14T21:09:16.872Z,6.50
2019-04-14T21:11:54.510Z,6.50
2019-04-14T21:14:27.561Z,6.50
2019-04-14T21:17:14.943Z,6.40
2019-04-14T21:19:46.861Z,6.40
2019-04-14T21:22:34.104Z,6.40
2019-04-14T21:25:20.536Z,6.30
2019-04-14T21:28:04.720Z,6.30
2019-04-14T21:30:36.627Z,6.20
2019-04-14T21:33:28.228Z,6.20
2019-04-14T21:35:59.591Z,6.20
2019-04-14T21:38:47.795Z,6.20
2019-04-14T21:41:20.521Z,6.20
2019-04-14T21:43:51.591Z,6.20
2019-04-14T21:46:21.846Z,6.20
2019-04-14T21:48:52.119Z,6.20
2019-04-14T21:51:24.032Z,6.10
2019-04-14T21:53:55.325Z,6.10
2019-04-14T21:56:27.241Z,6.10
2019-04-14T21:59:07.780Z,6.10
2019-04-14T22:01:40.181Z,6.10
2019-04-14T22:04:18.225Z,6.10
2019-04-14T22:06:50.146Z,6.20
2019-04-14T22:09:24.546Z,6.20
2019-04-14T22:11:55.661Z,6.10
2019-04-14T22:14:25.863Z,6.10
2019-04-14T22:16:56.193Z,6.10
2019-04-14T22:19:26.537Z,6.10
2019-04-14T22:21:56.802Z,6.10
2019-04-14T22:24:27.083Z,6.10
2019-04-14T22:26:58.815Z,6.10
2019-04-14T22:29:29.427Z,6.10
2019-04-14T22:32:00.645Z,6.10
2019-04-14T22:34:30.931Z,6.10
2019-04-14T22:37:01.418Z,6.00
2019-04-14T22:39:31.695Z,6.10
2019-04-14T22:42:01.975Z,6.10
2019-04-14T22:44:32.252Z,6.20
2019-04-14T22:47:02.808Z,6.10
2019-04-14T22:49:33.094Z,6.10
2019-04-14T22:52:03.743Z,6.00
2019-04-14T22:54:34.053Z,6.00
2019-04-14T22:57:04.335Z,6.00
2019-04-14T22:59:34.619Z,6.00
2019-04-14T23:02:06.911Z,6.00
2019-04-14T23:04:38.822Z,5.90
2019-04-14T23:07:29.161Z,5.90
2019-04-14T23:10:10.334Z,5.80
2019-04-14T23:12:51.526Z,5.80
2019-04-14T23:15:26.013Z,5.60
2019-04-14T23:17:57.937Z,5.60
2019-04-14T23:20:29.853Z,5.60
2019-04-14T23:23:04.836Z,5.60
2019-04-14T23:25:35.105Z,5.60
2019-04-14T23:28:05.463Z,5.60
2019-04-14T23:30:35.810Z,5.60
2019-04-14T23:33:06.095Z,5.70
2019-04-14T23:35:36.633Z,5.70
2019-04-14T23:38:06.911Z,5.60
2019-04-14T23:40:37.199Z,5.60
2019-04-14T23:43:07.482Z,5.60
2019-04-14T23:45:37.764Z,5.70
2019-04-14T23:48:09.301Z,5.60
2019-04-14T23:50:39.861Z,5.70
2019-04-14T23:53:10.223Z,5.60
2019-04-14T23:55:40.596Z,5.60
2019-04-14T23:58:10.881Z,5.50
